createdAt,value
2022-10-12T00:01:12.102Z,8.55
2022-10-12T00:03:39.236Z,8.53
2022-10-12T00:06:15.008Z,8.53
2022-10-12T00:08:43.034Z,8.55
2022-10-12T00:11:13.989Z,8.36
2022-10-12T00:13:41.593Z,8.38
2022-10-12T00:16:10.618Z,8.39
2022-10-12T00:18:37.881Z,8.31
2022-10-12T00:21:15.506Z,8.32
2022-10-12T00:23:43.620Z,8.41
2022-10-12T00:26:19.800Z,8.39
2022-10-12T00:28:46.835Z,8.35
2022-10-12T00:31:16.960Z,8.25
2022-10-12T00:33:43.979Z,8.24
2022-10-12T00:36:24.352Z,8.27
2022-10-12T00:38:52.989Z,8.27
2022-10-12T00:41:22.767Z,8.18
2022-10-12T00:43:55.334Z,8.17
2022-10-12T00:46:41.054Z,8.20
2022-10-12T00:49:24.651Z,8.21
2022-10-12T00:51:58.936Z,8.19
2022-10-12T00:54:37.744Z,8.22
2022-10-12T00:57:05.990Z,8.27
2022-10-12T00:59:36.452Z,8.25
2022-10-12T01:02:03.014Z,8.17
2022-10-12T01:04:31.614Z,8.15
2022-10-12T01:06:59.001Z,8.14
2022-10-12T01:09:27.503Z,8.15
2022-10-12T01:11:54.043Z,8.07
2022-10-12T01:14:20.537Z,8.03
2022-10-12T01:16:54.548Z,8.05
2022-10-12T01:19:42.481Z,8.10
2022-10-12T01:22:15.658Z,8.06
2022-10-12T01:24:54.321Z,8.02
2022-10-12T01:27:39.539Z,8.00
2022-10-12T01:30:07.740Z,7.98
2022-10-12T01:33:14.370Z,7.90
2022-10-12T01:35:53.122Z,7.94
2022-10-12T01:38:49.662Z,8.01
2022-10-12T01:41:27.423Z,7.99
2022-10-12T01:43:54.026Z,8.02
2022-10-12T01:46:20.477Z,7.99
2022-10-12T01:48:50.174Z,7.97
2022-10-12T01:51:24.792Z,7.98
2022-10-12T01:54:00.834Z,8.00
2022-10-12T01:56:42.405Z,7.86
2022-10-12T01:59:36.303Z,7.84
2022-10-12T02:02:24.422Z,7.91
2022-10-12T02:05:38.623Z,8.01
2022-10-12T02:08:25.670Z,7.88
2022-10-12T02:11:06.145Z,7.72
2022-10-12T02:13:36.880Z,7.72
2022-10-12T02:16:07.761Z,7.76
2022-10-12T02:18:36.873Z,7.71
2022-10-12T02:21:04.410Z,7.75
2022-10-12T02:23:30.961Z,7.69
2022-10-12T02:26:00.104Z,7.64
2022-10-12T02:28:30.460Z,7.63
2022-10-12T02:31:20.802Z,7.67
2022-10-12T02:34:33.624Z,7.70
2022-10-12T02:37:09.772Z,7.64
2022-10-12T02:39:47.934Z,7.58
2022-10-12T02:42:23.607Z,7.62
2022-10-12T02:44:53.873Z,7.54
2022-10-12T02:47:24.583Z,7.60
2022-10-12T02:49:53.344Z,7.51
2022-10-12T02:52:19.897Z,7.42
2022-10-12T02:54:46.557Z,7.26
2022-10-12T02:57:13.053Z,7.22
2022-10-12T02:59:39.556Z,7.31
2022-10-12T03:02:06.027Z,7.21
2022-10-12T03:04:32.622Z,7.24
2022-10-12T03:06:59.088Z,7.19
2022-10-12T03:09:25.565Z,7.07
2022-10-12T03:11:52.019Z,7.25
2022-10-12T03:14:18.504Z,7.19
2022-10-12T03:16:48.266Z,6.99
2022-10-12T03:19:15.328Z,6.84
2022-10-12T03:21:41.833Z,6.79
2022-10-12T03:24:08.386Z,6.79
2022-10-12T03:26:34.989Z,6.86
2022-10-12T03:29:01.452Z,6.86
2022-10-12T03:31:27.931Z,6.90
2022-10-12T03:33:54.426Z,6.84
2022-10-12T03:36:20.922Z,6.92
2022-10-12T03:38:47.453Z,6.97
2022-10-12T03:41:13.895Z,7.04
2022-10-12T03:43:40.426Z,7.05
2022-10-12T03:46:06.865Z,6.93
2022-10-12T03:48:33.404Z,6.97
2022-10-12T03:51:00.053Z,6.87
2022-10-12T03:53:26.573Z,6.93
2022-10-12T03:55:53.000Z,6.98
2022-10-12T03:58:19.473Z,7.05
2022-10-12T04:00:46.164Z,6.81
2022-10-12T04:03:12.666Z,6.83
2022-10-12T04:05:40.050Z,6.94
2022-10-12T04:08:06.533Z,7.05
2022-10-12T04:10:33.101Z,6.99
2022-10-12T04:12:59.639Z,6.97
2022-10-12T04:15:26.200Z,6.99
2022-10-12T04:17:53.308Z,7.00
2022-10-12T04:20:19.766Z,6.99
2022-10-12T04:22:46.285Z,7.04
2022-10-12T04:25:12.797Z,6.96
2022-10-12T04:27:39.810Z,6.90
2022-10-12T04:30:07.092Z,6.79
2022-10-12T04:32:33.586Z,6.80
2022-10-12T04:35:00.077Z,6.88
2022-10-12T04:37:28.050Z,7.03
2022-10-12T04:39:54.698Z,7.01
2022-10-12T04:42:21.253Z,7.01
2022-10-12T04:44:47.739Z,6.94
2022-10-12T04:47:14.191Z,6.73
2022-10-12T04:49:40.805Z,6.81
2022-10-12T04:52:07.274Z,6.80
2022-10-12T04:54:33.918Z,6.84
2022-10-12T04:57:00.427Z,6.68
2022-10-12T04:59:27.656Z,6.67
2022-10-12T05:01:54.533Z,6.60
2022-10-12T05:04:21.272Z,6.60
2022-10-12T05:06:47.778Z,6.64
2022-10-12T05:09:16.866Z,6.70
2022-10-12T05:11:43.831Z,6.66
2022-10-12T05:14:10.482Z,6.73
2022-10-12T05:16:36.950Z,6.68
2022-10-12T05:19:03.391Z,6.65
2022-10-12T05:21:29.935Z,6.58
2022-10-12T05:23:56.402Z,6.54
2022-10-12T05:26:22.886Z,6.65
2022-10-12T05:28:49.522Z,6.55
2022-10-12T05:31:16.091Z,6.45
2022-10-12T05:33:42.537Z,6.41
2022-10-12T05:36:09.336Z,6.38
2022-10-12T05:38:35.800Z,6.31
2022-10-12T05:41:02.280Z,6.32
2022-10-12T05:43:28.880Z,6.34
2022-10-12T05:45:55.536Z,6.49
2022-10-12T05:48:22.127Z,6.49
2022-10-12T05:50:48.710Z,6.44
2022-10-12T05:53:15.218Z,6.50
2022-10-12T05:55:52.031Z,6.56
2022-10-12T05:58:18.544Z,6.57
2022-10-12T06:00:44.996Z,6.60
2022-10-12T06:03:11.463Z,6.66
2022-10-12T06:05:37.947Z,6.73
2022-10-12T06:08:04.839Z,6.83
2022-10-12T06:10:32.166Z,6.79
2022-10-12T06:12:58.777Z,6.72
2022-10-12T06:15:25.268Z,6.67
2022-10-12T06:17:51.747Z,6.76
2022-10-12T06:20:18.211Z,6.85
2022-10-12T06:22:44.711Z,6.90
2022-10-12T06:25:11.194Z,6.81
2022-10-12T06:27:37.683Z,6.82
2022-10-12T06:30:04.928Z,6.80
2022-10-12T06:32:31.387Z,6.79
2022-10-12T06:34:57.940Z,6.91
2022-10-12T06:37:48.626Z,6.99
2022-10-12T06:40:11.463Z,7.01
2022-10-12T06:42:38.109Z,6.90
2022-10-12T06:45:05.123Z,6.88
2022-10-12T06:47:31.578Z,6.96
2022-10-12T06:49:58.097Z,7.10
2022-10-12T06:52:24.615Z,7.07
2022-10-12T06:54:51.078Z,7.02
2022-10-12T06:57:17.532Z,7.09
2022-10-12T06:59:44.003Z,7.25
2022-10-12T07:02:13.361Z,7.46
2022-10-12T07:04:39.831Z,7.45
2022-10-12T07:07:06.404Z,7.56
2022-10-12T07:09:33.054Z,7.64
2022-10-12T07:11:59.565Z,7.75
2022-10-12T07:14:26.062Z,7.90
2022-10-12T07:16:55.247Z,8.06
2022-10-12T07:19:22.135Z,8.09
2022-10-12T07:21:48.705Z,7.97
2022-10-12T07:24:15.306Z,8.06
2022-10-12T07:26:41.796Z,8.20
2022-10-12T07:29:08.370Z,8.17
2022-10-12T07:31:34.869Z,8.12
2022-10-12T07:34:01.343Z,8.13
2022-10-12T07:36:47.262Z,8.17
2022-10-12T07:39:17.205Z,8.20
2022-10-12T07:41:43.868Z,8.30
2022-10-12T07:44:10.825Z,8.38
2022-10-12T07:46:37.648Z,8.44
2022-10-12T07:49:04.579Z,8.52
2022-10-12T07:51:31.388Z,8.64
2022-10-12T07:54:00.149Z,8.85
2022-10-12T07:56:27.058Z,9.01
2022-10-12T07:58:55.474Z,9.05
2022-10-12T08:01:24.688Z,9.24
2022-10-12T08:03:51.927Z,9.36
2022-10-12T08:06:21.437Z,9.44
2022-10-12T08:08:48.771Z,9.47
2022-10-12T08:11:16.226Z,9.48
2022-10-12T08:13:43.169Z,9.62
2022-10-12T08:16:14.990Z,9.77
2022-10-12T08:18:41.507Z,9.85
2022-10-12T08:21:09.388Z,9.88
2022-10-12T08:23:37.054Z,10.00
2022-10-12T08:26:04.525Z,10.11
2022-10-12T08:28:31.159Z,10.25
2022-10-12T08:30:58.129Z,10.36
2022-10-12T08:33:24.675Z,10.48
2022-10-12T08:35:51.317Z,10.67
2022-10-12T08:38:17.878Z,10.81
2022-10-12T08:41:10.958Z,10.98
2022-10-12T08:44:11.713Z,11.06
2022-10-12T08:46:38.436Z,11.13
2022-10-12T08:49:15.325Z,11.24
2022-10-12T08:51:52.697Z,11.33
2022-10-12T08:54:22.482Z,11.54
2022-10-12T08:56:51.472Z,11.70
2022-10-12T08:59:19.080Z,11.91
2022-10-12T09:01:54.514Z,11.97
2022-10-12T09:04:36.133Z,12.12
2022-10-12T09:07:15.343Z,12.32
2022-10-12T09:09:56.857Z,12.46
2022-10-12T09:12:45.110Z,12.57
2022-10-12T09:15:19.950Z,12.74
2022-10-12T09:17:53.281Z,12.79
2022-10-12T09:20:19.906Z,12.75
2022-10-12T09:22:56.518Z,12.75
2022-10-12T09:25:28.244Z,12.77
2022-10-12T09:28:06.741Z,12.75
2022-10-12T09:30:37.762Z,12.79
2022-10-12T09:33:16.119Z,12.94
2022-10-12T09:35:45.066Z,13.05
2022-10-12T09:38:12.168Z,13.12
2022-10-12T09:40:39.654Z,13.09
2022-10-12T09:43:07.464Z,13.05
2022-10-12T09:45:35.163Z,13.15
2022-10-12T09:48:15.796Z,13.20
2022-10-12T09:50:54.318Z,13.30
2022-10-12T09:53:33.705Z,13.49
2022-10-12T09:56:05.663Z,13.64
2022-10-12T09:58:41.574Z,13.74
2022-10-12T10:01:16.563Z,13.90
2022-10-12T10:03:45.323Z,13.82
2022-10-12T10:06:11.974Z,13.78
2022-10-12T10:08:44.859Z,13.74
2022-10-12T10:11:16.853Z,13.90
2022-10-12T10:13:48.102Z,14.00
2022-10-12T10:16:14.832Z,14.00
2022-10-12T10:18:51.015Z,14.03
2022-10-12T10:21:39.559Z,14.16
2022-10-12T10:24:20.833Z,14.15
2022-10-12T10:27:03.547Z,14.23
2022-10-12T10:29:35.381Z,14.51
2022-10-12T10:32:24.226Z,14.44
2022-10-12T10:35:21.920Z,14.41
2022-10-12T10:37:51.472Z,14.44
2022-10-12T10:40:22.612Z,14.46
2022-10-12T10:42:55.546Z,14.58
2022-10-12T10:45:35.466Z,14.57
2022-10-12T10:48:16.601Z,14.60
2022-10-12T10:50:50.823Z,14.68
2022-10-12T10:53:23.978Z,14.62
2022-10-12T10:56:14.222Z,14.69
2022-10-12T10:58:47.658Z,14.71
2022-10-12T11:01:35.305Z,14.84
2022-10-12T11:04:12.127Z,15.09
2022-10-12T11:06:44.686Z,14.98
2022-10-12T11:09:15.841Z,14.90
2022-10-12T11:11:44.278Z,14.96
2022-10-12T11:14:20.667Z,14.96
2022-10-12T11:17:01.040Z,14.99
2022-10-12T11:19:39.427Z,15.04
2022-10-12T11:22:15.342Z,15.00
2022-10-12T11:24:54.479Z,15.05
2022-10-12T11:27:39.493Z,15.01
2022-10-12T11:30:26.413Z,15.15
2022-10-12T11:33:22.267Z,15.11
2022-10-12T11:35:49.708Z,15.17
2022-10-12T11:38:52.455Z,15.15
2022-10-12T11:41:36.100Z,15.15
2022-10-12T11:44:20.791Z,15.13
2022-10-12T11:46:54.321Z,15.09
2022-10-12T11:49:29.190Z,15.15
2022-10-12T11:51:59.645Z,15.06
2022-10-12T11:54:31.780Z,15.13
2022-10-12T11:57:05.936Z,15.14
2022-10-12T11:59:59.123Z,15.13
2022-10-12T12:02:42.889Z,15.24
2022-10-12T12:05:16.729Z,15.35
2022-10-12T12:07:51.024Z,15.39
2022-10-12T12:10:26.590Z,15.37
2022-10-12T12:13:14.952Z,15.33
2022-10-12T12:15:47.436Z,15.40
2022-10-12T12:18:44.380Z,15.44
2022-10-12T12:21:11.127Z,15.31
2022-10-12T12:23:43.706Z,15.28
2022-10-12T12:26:15.593Z,15.25
2022-10-12T12:28:51.831Z,15.42
2022-10-12T12:31:27.700Z,15.29
2022-10-12T12:34:17.268Z,15.27
2022-10-12T12:36:46.402Z,15.28
2022-10-12T12:39:27.470Z,15.31
2022-10-12T12:42:02.292Z,15.27
2022-10-12T12:44:36.682Z,15.19
2022-10-12T12:47:08.604Z,15.27
2022-10-12T12:49:51.692Z,15.28
2022-10-12T12:52:24.232Z,15.30
2022-10-12T12:55:18.550Z,15.29
2022-10-12T12:58:03.680Z,15.40
2022-10-12T13:00:38.260Z,15.45
2022-10-12T13:03:31.064Z,15.39
2022-10-12T13:06:25.122Z,15.25
2022-10-12T13:09:21.353Z,15.27
2022-10-12T13:12:26.002Z,15.16
2022-10-12T13:15:18.747Z,15.24
2022-10-12T13:18:23.148Z,15.27
2022-10-12T13:20:55.943Z,15.29
2022-10-12T13:23:26.166Z,15.19
2022-10-12T13:25:57.449Z,15.12
2022-10-12T13:28:31.443Z,15.09
2022-10-12T13:31:04.281Z,15.08
2022-10-12T13:33:39.054Z,15.11
2022-10-12T13:36:11.108Z,15.07
2022-10-12T13:38:40.448Z,15.06
2022-10-12T13:41:16.648Z,15.15
2022-10-12T13:43:50.244Z,15.08
2022-10-12T13:46:35.527Z,15.06
2022-10-12T13:49:03.713Z,15.07
2022-10-12T13:51:31.414Z,15.05
2022-10-12T13:53:58.202Z,15.00
2022-10-12T13:56:28.166Z,14.93
2022-10-12T13:59:00.333Z,14.82
2022-10-12T14:01:27.058Z,14.78
2022-10-12T14:04:02.993Z,14.67
2022-10-12T14:06:35.308Z,14.52
2022-10-12T14:09:18.276Z,14.40
2022-10-12T14:11:46.590Z,14.25
2022-10-12T14:14:35.141Z,14.20
2022-10-12T14:17:02.279Z,14.22
2022-10-12T14:19:45.340Z,14.21
2022-10-12T14:22:18.633Z,14.23
2022-10-12T14:24:45.168Z,14.19
2022-10-12T14:27:24.505Z,14.11
2022-10-12T14:29:56.705Z,14.13
2022-10-12T14:32:23.130Z,14.14
2022-10-12T14:35:03.355Z,14.19
2022-10-12T14:37:31.029Z,14.21
2022-10-12T14:40:00.908Z,14.26
2022-10-12T14:42:34.107Z,14.28
2022-10-12T14:45:02.098Z,14.29
2022-10-12T14:47:37.486Z,14.25
2022-10-12T14:50:08.260Z,14.23
2022-10-12T14:52:45.026Z,14.16
2022-10-12T14:55:32.312Z,14.15
2022-10-12T14:57:59.768Z,14.15
2022-10-12T15:00:32.054Z,14.08
2022-10-12T15:02:59.249Z,14.04
2022-10-12T15:05:29.027Z,14.07
2022-10-12T15:07:55.482Z,13.98
2022-10-12T15:10:23.764Z,13.88
2022-10-12T15:12:51.440Z,13.87
2022-10-12T15:15:39.467Z,13.91
2022-10-12T15:18:06.607Z,13.94
2022-10-12T15:20:36.402Z,13.87
2022-10-12T15:23:03.221Z,13.82
2022-10-12T15:25:35.569Z,13.79
2022-10-12T15:28:03.027Z,13.80
2022-10-12T15:30:29.926Z,13.79
2022-10-12T15:32:56.433Z,13.81
2022-10-12T15:35:25.798Z,13.81
2022-10-12T15:37:52.625Z,13.86
2022-10-12T15:40:20.584Z,13.90
2022-10-12T15:42:47.469Z,13.95
2022-10-12T15:45:19.399Z,13.93
2022-10-12T15:47:49.897Z,13.92
2022-10-12T15:50:18.018Z,13.87
2022-10-12T15:52:45.055Z,13.85
2022-10-12T15:55:16.211Z,13.84
2022-10-12T15:57:43.027Z,13.78
2022-10-12T16:00:11.096Z,13.75
2022-10-12T16:02:37.801Z,13.74
2022-10-12T16:05:06.727Z,13.73
2022-10-12T16:07:33.183Z,13.65
2022-10-12T16:09:59.671Z,13.62
2022-10-12T16:12:26.135Z,13.53
2022-10-12T16:14:52.622Z,13.44
2022-10-12T16:17:19.060Z,13.32
2022-10-12T16:19:45.747Z,13.22
2022-10-12T16:22:12.219Z,13.16
2022-10-12T16:24:38.720Z,13.10
2022-10-12T16:27:05.242Z,13.04
2022-10-12T16:29:31.741Z,12.93
2022-10-12T16:31:58.208Z,12.84
2022-10-12T16:34:24.681Z,12.75
2022-10-12T16:36:53.151Z,12.68
2022-10-12T16:39:19.694Z,12.63
2022-10-12T16:41:46.179Z,12.57
2022-10-12T16:44:12.673Z,12.47
2022-10-12T16:46:39.420Z,12.40
2022-10-12T16:49:05.908Z,12.35
2022-10-12T16:51:32.455Z,12.31
2022-10-12T16:53:59.281Z,12.29
2022-10-12T16:56:25.810Z,12.18
2022-10-12T16:58:52.620Z,12.16
2022-10-12T17:01:19.178Z,12.13
2022-10-12T17:03:45.671Z,12.07
2022-10-12T17:06:12.209Z,12.01
2022-10-12T17:08:41.739Z,12.02
2022-10-12T17:11:10.864Z,12.02
2022-10-12T17:13:38.457Z,11.96
2022-10-12T17:16:25.684Z,11.94
2022-10-12T17:18:56.804Z,11.88
2022-10-12T17:21:25.625Z,11.88
2022-10-12T17:23:55.196Z,11.93
2022-10-12T17:26:21.750Z,11.91
2022-10-12T17:28:48.287Z,11.90
2022-10-12T17:31:14.942Z,11.87
2022-10-12T17:33:41.422Z,11.82
2022-10-12T17:36:10.603Z,11.72
2022-10-12T17:38:37.370Z,11.67
2022-10-12T17:41:05.140Z,11.69
2022-10-12T17:43:32.071Z,11.69
2022-10-12T17:45:59.072Z,11.66
2022-10-12T17:48:25.597Z,11.63
2022-10-12T17:50:52.102Z,11.63
2022-10-12T17:53:18.638Z,11.63
2022-10-12T17:55:48.621Z,11.56
2022-10-12T17:58:15.741Z,11.56
2022-10-12T18:00:42.365Z,11.53
2022-10-12T18:03:08.920Z,11.41
2022-10-12T18:05:35.439Z,11.41
2022-10-12T18:08:01.994Z,11.37
2022-10-12T18:10:28.753Z,11.34
2022-10-12T18:12:55.451Z,11.29
2022-10-12T18:15:23.102Z,11.26
2022-10-12T18:17:50.588Z,11.23
2022-10-12T18:20:18.695Z,11.18
2022-10-12T18:22:45.244Z,11.11
2022-10-12T18:25:11.781Z,11.05
2022-10-12T18:27:38.321Z,11.04
2022-10-12T18:30:05.363Z,11.03
2022-10-12T18:32:31.868Z,10.90
2022-10-12T18:34:58.462Z,10.87
2022-10-12T18:37:25.032Z,10.86
2022-10-12T18:39:51.568Z,10.83
2022-10-12T18:42:18.326Z,10.81
2022-10-12T18:44:45.134Z,10.76
2022-10-12T18:47:11.618Z,10.70
2022-10-12T18:49:38.288Z,10.53
2022-10-12T18:52:05.101Z,10.48
2022-10-12T18:54:31.692Z,10.52
2022-10-12T18:56:58.182Z,10.53
2022-10-12T18:59:24.692Z,10.50
2022-10-12T19:01:51.371Z,10.41
2022-10-12T19:04:18.009Z,10.44
2022-10-12T19:06:45.089Z,10.30
2022-10-12T19:09:13.693Z,10.31
2022-10-12T19:11:40.716Z,10.28
2022-10-12T19:14:15.812Z,10.28
2022-10-12T19:16:43.887Z,10.19
2022-10-12T19:19:20.766Z,10.20
2022-10-12T19:21:49.424Z,10.13
2022-10-12T19:24:16.268Z,10.24
2022-10-12T19:26:43.755Z,10.33
2022-10-12T19:29:12.919Z,10.33
2022-10-12T19:31:44.399Z,10.37
2022-10-12T19:34:14.255Z,10.38
2022-10-12T19:36:41.836Z,10.37
2022-10-12T19:39:12.307Z,10.26
2022-10-12T19:41:42.410Z,10.28
2022-10-12T19:44:11.265Z,10.23
2022-10-12T19:46:38.990Z,10.05
2022-10-12T19:49:05.704Z,10.01
2022-10-12T19:51:32.861Z,10.11
2022-10-12T19:54:01.825Z,10.05
2022-10-12T19:56:28.689Z,9.98
2022-10-12T19:58:59.186Z,9.88
2022-10-12T20:01:28.501Z,9.75
2022-10-12T20:03:55.913Z,9.83
2022-10-12T20:06:25.250Z,9.79
2022-10-12T20:08:53.753Z,9.81
2022-10-12T20:11:24.509Z,9.72
2022-10-12T20:13:52.159Z,9.52
2022-10-12T20:16:20.099Z,9.49
2022-10-12T20:18:46.717Z,9.50
2022-10-12T20:21:16.281Z,9.54
2022-10-12T20:23:43.631Z,9.55
2022-10-12T20:26:16.971Z,9.61
2022-10-12T20:28:49.387Z,9.56
2022-10-12T20:31:17.486Z,9.63
2022-10-12T20:33:44.264Z,9.66
2022-10-12T20:36:18.489Z,9.64
2022-10-12T20:38:44.962Z,9.62
2022-10-12T20:41:13.285Z,9.59
2022-10-12T20:43:40.782Z,9.41
2022-10-12T20:46:10.882Z,9.44
2022-10-12T20:48:39.660Z,9.47
2022-10-12T20:51:10.516Z,9.39
2022-10-12T20:53:37.902Z,9.49
2022-10-12T20:56:06.299Z,9.60
2022-10-12T20:58:32.813Z,9.60
2022-10-12T21:01:07.588Z,9.62
2022-10-12T21:03:34.905Z,9.52
2022-10-12T21:06:03.663Z,9.43
2022-10-12T21:08:30.374Z,9.54
2022-10-12T21:10:57.154Z,9.60
2022-10-12T21:13:23.687Z,9.56
2022-10-12T21:15:54.234Z,9.57
2022-10-12T21:18:21.693Z,9.56
2022-10-12T21:20:59.203Z,9.51
2022-10-12T21:23:26.156Z,9.46
2022-10-12T21:25:53.223Z,9.44
2022-10-12T21:28:20.703Z,9.49
2022-10-12T21:30:47.633Z,9.57
2022-10-12T21:33:16.646Z,9.66
2022-10-12T21:35:43.594Z,9.68
2022-10-12T21:38:10.600Z,9.63
2022-10-12T21:40:40.541Z,9.58
2022-10-12T21:43:06.993Z,9.59
2022-10-12T21:45:34.348Z,9.49
2022-10-12T21:48:00.957Z,9.47
2022-10-12T21:50:28.391Z,9.52
2022-10-12T21:53:00.067Z,9.58
2022-10-12T21:55:26.783Z,9.63
2022-10-12T21:57:53.208Z,9.62
2022-10-12T22:00:19.709Z,9.64
2022-10-12T22:02:46.143Z,9.67
2022-10-12T22:05:12.659Z,9.71
2022-10-12T22:07:41.800Z,9.51
2022-10-12T22:10:10.742Z,9.21
2022-10-12T22:12:38.221Z,9.23
2022-10-12T22:15:05.463Z,9.29
2022-10-12T22:17:31.905Z,9.29
2022-10-12T22:19:58.378Z,9.38
2022-10-12T22:22:24.873Z,9.25
2022-10-12T22:24:51.375Z,9.37
2022-10-12T22:27:20.391Z,9.39
2022-10-12T22:29:46.891Z,9.44
2022-10-12T22:32:13.358Z,9.47
2022-10-12T22:34:39.845Z,9.45
2022-10-12T22:37:06.321Z,9.48
2022-10-12T22:39:32.797Z,9.59
2022-10-12T22:41:59.237Z,9.63
2022-10-12T22:44:25.933Z,9.68
2022-10-12T22:46:52.371Z,9.70
2022-10-12T22:49:18.882Z,9.73
2022-10-12T22:51:45.493Z,9.75
2022-10-12T22:54:13.343Z,9.82
2022-10-12T22:56:40.645Z,9.77
2022-10-12T22:59:07.245Z,9.79
2022-10-12T23:01:35.071Z,9.79
2022-10-12T23:04:01.592Z,9.84
2022-10-12T23:06:28.102Z,9.74
2022-10-12T23:08:54.649Z,9.74
2022-10-12T23:11:24.103Z,9.71
2022-10-12T23:13:51.033Z,9.74
2022-10-12T23:16:29.361Z,9.71
2022-10-12T23:19:00.925Z,9.65
2022-10-12T23:21:29.444Z,9.71
2022-10-12T23:23:56.428Z,9.73
2022-10-12T23:26:25.133Z,9.77
2022-10-12T23:28:52.874Z,9.76
2022-10-12T23:31:22.004Z,9.76
2022-10-12T23:33:48.855Z,9.80
2022-10-12T23:36:17.491Z,9.80
2022-10-12T23:38:44.947Z,9.78
2022-10-12T23:41:14.785Z,9.70
2022-10-12T23:43:41.607Z,9.70
2022-10-12T23:46:10.187Z,9.72
2022-10-12T23:48:36.709Z,9.75
2022-10-12T23:51:06.873Z,9.76
2022-10-12T23:53:33.713Z,9.81
2022-10-12T23:56:00.232Z,9.83
2022-10-12T23:58:26.666Z,9.89
